National Weather Service Raw Text Product

Displaying AFOS PIL: TAFMCW Received: 2017-11-15 03:26 UTC


745 
FTUS43 KDMX 150326 AAB
TAFMCW
TAF AMD
KMCW 150326Z 1503/1524 17010KT 3SM -RA BR OVC003
     FM150700 24009KT 3SM BR VCSH OVC003
     FM150900 28009KT P6SM OVC004
     FM151100 30014G21KT P6SM SCT004 BKN014
     FM151400 31017G24KT P6SM BKN020=